createdAt,value
2023-02-06T00:00:50.912Z,4.38
2023-02-06T00:03:17.832Z,3.97
2023-02-06T00:05:44.449Z,3.78
2023-02-06T00:08:10.916Z,3.42
2023-02-06T00:10:38.421Z,4.10
2023-02-06T00:13:04.781Z,3.55
2023-02-06T00:15:31.379Z,3.88
2023-02-06T00:17:57.794Z,4.13
2023-02-06T00:20:24.221Z,4.53
2023-02-06T00:22:50.679Z,3.00
2023-02-06T00:25:17.200Z,4.70
2023-02-06T00:27:43.831Z,3.47
2023-02-06T00:30:10.695Z,3.95
2023-02-06T00:32:37.161Z,4.10
2023-02-06T00:35:04.312Z,3.88
2023-02-06T00:37:30.857Z,3.75
2023-02-06T00:39:57.214Z,4.03
2023-02-06T00:42:23.628Z,6.32
2023-02-06T00:44:49.974Z,5.18
2023-02-06T00:47:16.510Z,3.58
2023-02-06T00:49:42.952Z,4.15
2023-02-06T00:52:11.356Z,4.05
2023-02-06T00:54:37.749Z,4.00
2023-02-06T00:57:04.113Z,3.63
2023-02-06T00:59:30.460Z,3.95
2023-02-06T01:01:56.840Z,3.05
2023-02-06T01:04:23.196Z,3.67
2023-02-06T01:06:49.764Z,2.97
2023-02-06T01:09:16.249Z,3.35
2023-02-06T01:11:42.780Z,2.67
2023-02-06T01:14:09.513Z,2.97
2023-02-06T01:16:35.870Z,3.72
2023-02-06T01:19:02.405Z,3.40
2023-02-06T01:21:28.788Z,3.70
2023-02-06T01:23:55.662Z,3.10
2023-02-06T01:26:26.747Z,3.80
2023-02-06T01:28:54.504Z,3.80
2023-02-06T01:31:25.966Z,3.75
2023-02-06T01:33:52.982Z,4.15
2023-02-06T01:36:20.558Z,3.95
2023-02-06T01:38:48.238Z,3.30
2023-02-06T01:41:16.530Z,4.25
2023-02-06T01:43:46.671Z,4.00
2023-02-06T01:46:13.341Z,4.18
2023-02-06T01:48:51.187Z,3.97
2023-02-06T01:51:21.244Z,3.67
2023-02-06T01:53:51.332Z,3.80
2023-02-06T01:56:19.561Z,3.55
2023-02-06T01:58:51.226Z,3.88
2023-02-06T02:03:48.243Z,3.30
2023-02-06T02:06:18.847Z,3.83
2023-02-06T02:08:47.657Z,3.63
2023-02-06T02:11:35.177Z,3.80
2023-02-06T02:14:04.921Z,3.63
2023-02-06T02:16:59.244Z,4.03
2023-02-06T02:20:10.203Z,2.97
2023-02-06T02:22:51.534Z,3.33
2023-02-06T02:25:54.748Z,4.18
2023-02-06T02:28:45.654Z,3.83
2023-02-06T02:31:33.910Z,3.65
2023-02-06T02:34:25.189Z,4.00
2023-02-06T02:36:59.263Z,3.55
2023-02-06T02:39:43.713Z,3.67
2023-02-06T02:42:13.265Z,3.72
2023-02-06T02:44:57.312Z,3.42
2023-02-06T02:47:30.459Z,3.33
2023-02-06T02:50:00.167Z,4.10
2023-02-06T02:52:26.667Z,3.42
2023-02-06T02:54:54.841Z,3.33
2023-02-06T02:57:30.542Z,3.45
2023-02-06T03:00:00.212Z,3.08
2023-02-06T03:02:33.738Z,3.40
2023-02-06T03:05:06.578Z,3.72
2023-02-06T03:08:09.499Z,4.07
2023-02-06T03:10:53.329Z,4.28
2023-02-06T03:13:48.793Z,4.15
2023-02-06T03:16:24.931Z,4.13
2023-02-06T03:18:57.698Z,3.53
2023-02-06T03:21:26.652Z,4.13
2023-02-06T03:23:57.746Z,3.58
2023-02-06T03:26:26.829Z,4.43
2023-02-06T03:28:58.314Z,3.85
2023-02-06T03:31:47.009Z,3.78
2023-02-06T03:36:39.996Z,3.30
2023-02-06T03:39:06.919Z,3.75
2023-02-06T03:41:36.989Z,4.00
2023-02-06T03:44:08.423Z,4.68
2023-02-06T03:46:38.495Z,4.03
2023-02-06T03:49:08.408Z,3.60
2023-02-06T03:51:39.227Z,3.28
2023-02-06T03:54:06.449Z,3.85
2023-02-06T03:56:39.890Z,4.30
2023-02-06T03:59:06.332Z,3.92
2023-02-06T04:01:32.971Z,3.95
2023-02-06T04:03:59.410Z,4.22
2023-02-06T04:06:27.902Z,4.20
2023-02-06T04:08:54.297Z,4.43
2023-02-06T04:11:20.663Z,4.25
2023-02-06T04:13:47.215Z,4.15
2023-02-06T04:16:13.694Z,4.03
2023-02-06T04:18:40.076Z,4.50
2023-02-06T04:21:07.162Z,3.70
2023-02-06T04:23:33.897Z,3.58
2023-02-06T04:26:00.442Z,3.95
2023-02-06T04:28:27.083Z,3.88
2023-02-06T04:30:53.882Z,3.72
2023-02-06T04:33:20.490Z,3.83
2023-02-06T04:35:47.812Z,3.88
2023-02-06T04:38:14.370Z,3.67
2023-02-06T04:40:40.757Z,4.40
2023-02-06T04:43:08.160Z,4.35
2023-02-06T04:45:34.957Z,4.32
2023-02-06T04:48:01.483Z,3.75
2023-02-06T04:50:31.777Z,4.35
2023-02-06T04:52:58.724Z,4.38
2023-02-06T04:55:25.186Z,3.88
2023-02-06T04:57:51.712Z,3.85
2023-02-06T05:00:18.283Z,4.07
2023-02-06T05:02:44.706Z,3.85
2023-02-06T05:05:11.428Z,3.22
2023-02-06T05:07:37.879Z,4.38
2023-02-06T05:10:04.859Z,4.47
2023-02-06T05:12:31.322Z,4.72
2023-02-06T05:14:58.727Z,4.18
2023-02-06T05:17:25.161Z,4.07
2023-02-06T05:19:51.502Z,4.28
2023-02-06T05:22:17.928Z,4.22
2023-02-06T05:24:44.340Z,4.43
2023-02-06T05:27:10.731Z,5.03
2023-02-06T05:29:37.214Z,4.70
2023-02-06T05:32:03.687Z,7.15
2023-02-06T05:34:30.104Z,6.47
2023-02-06T05:36:56.536Z,6.38
2023-02-06T05:39:23.502Z,4.43
2023-02-06T05:41:49.878Z,5.88
2023-02-06T05:44:16.355Z,5.38
2023-02-06T05:46:42.790Z,5.78
2023-02-06T05:49:09.129Z,4.53
2023-02-06T05:51:35.532Z,4.85
2023-02-06T05:54:01.962Z,5.40
2023-02-06T05:56:28.312Z,4.82
2023-02-06T05:58:54.680Z,4.70
2023-02-06T06:01:21.027Z,4.80
2023-02-06T06:03:47.602Z,5.50
2023-02-06T06:06:14.064Z,4.32
2023-02-06T06:08:40.542Z,4.13
2023-02-06T06:11:07.693Z,5.10
2023-02-06T06:13:34.198Z,4.68
2023-02-06T06:16:00.616Z,4.43
2023-02-06T06:18:27.082Z,4.78
2023-02-06T06:20:53.741Z,4.80
2023-02-06T06:23:20.238Z,4.55
2023-02-06T06:25:47.789Z,4.00
2023-02-06T06:28:15.424Z,4.47
2023-02-06T06:30:42.091Z,4.63
2023-02-06T06:33:08.618Z,4.15
2023-02-06T06:35:35.451Z,5.00
2023-02-06T06:38:03.080Z,4.68
2023-02-06T06:40:29.509Z,5.05
2023-02-06T06:42:56.011Z,5.72
2023-02-06T06:45:22.489Z,5.15
2023-02-06T06:47:48.925Z,4.97
2023-02-06T06:50:15.414Z,5.25
2023-02-06T06:52:41.734Z,5.93
2023-02-06T06:55:08.169Z,5.50
2023-02-06T06:57:34.578Z,5.50
2023-02-06T07:00:01.131Z,5.57
2023-02-06T07:02:28.486Z,4.32
2023-02-06T07:04:55.461Z,4.47
2023-02-06T07:07:22.039Z,5.85
2023-02-06T07:09:48.446Z,4.68
2023-02-06T07:12:14.889Z,5.28
2023-02-06T07:14:42.325Z,4.43
2023-02-06T07:17:08.730Z,4.60
2023-02-06T07:19:35.137Z,4.32
2023-02-06T07:22:01.621Z,4.10
2023-02-06T07:24:27.975Z,4.60
2023-02-06T07:26:54.405Z,5.13
2023-02-06T07:29:20.786Z,3.88
2023-02-06T07:31:47.193Z,3.50
2023-02-06T07:34:14.901Z,3.97
2023-02-06T07:36:41.239Z,4.68
2023-02-06T07:39:07.745Z,4.32
2023-02-06T07:41:34.436Z,4.50
2023-02-06T07:44:00.858Z,4.47
2023-02-06T07:46:27.318Z,3.80
2023-02-06T07:48:53.809Z,5.18
2023-02-06T07:51:20.351Z,4.72
2023-02-06T07:53:48.359Z,4.40
2023-02-06T07:56:18.355Z,3.72
2023-02-06T07:58:47.207Z,5.15
2023-02-06T08:01:13.581Z,4.82
2023-02-06T08:03:40.200Z,5.43
2023-02-06T08:06:15.703Z,5.43
2023-02-06T08:08:43.427Z,4.65
2023-02-06T08:11:13.254Z,5.47
2023-02-06T08:13:39.769Z,5.45
2023-02-06T08:16:08.725Z,5.07
2023-02-06T08:18:35.844Z,5.40
2023-02-06T08:21:04.529Z,5.38
2023-02-06T08:23:31.488Z,5.32
2023-02-06T08:26:17.423Z,5.00
2023-02-06T08:28:45.920Z,3.60
2023-02-06T08:31:21.990Z,4.25
2023-02-06T08:33:48.468Z,5.72
2023-02-06T08:36:16.902Z,5.88
2023-02-06T08:38:43.942Z,4.60
2023-02-06T08:41:18.974Z,5.55
2023-02-06T08:43:47.179Z,5.45
2023-02-06T08:46:14.500Z,5.25
2023-02-06T08:48:41.143Z,4.93
2023-02-06T08:51:09.446Z,5.25
2023-02-06T08:53:36.852Z,5.10
2023-02-06T08:56:09.013Z,5.68
2023-02-06T08:58:36.503Z,5.55
2023-02-06T09:01:14.345Z,5.38
2023-02-06T09:03:41.801Z,5.07
2023-02-06T09:06:10.467Z,5.68
2023-02-06T09:08:38.157Z,5.72
2023-02-06T09:11:15.790Z,5.50
2023-02-06T09:13:43.942Z,6.13
2023-02-06T09:16:11.967Z,5.28
2023-02-06T09:18:38.783Z,5.05
2023-02-06T09:21:08.222Z,5.43
2023-02-06T09:23:35.078Z,5.82
2023-02-06T09:26:01.686Z,5.28
2023-02-06T09:28:28.142Z,5.82
2023-02-06T09:30:55.819Z,6.47
2023-02-06T09:33:23.360Z,5.97
2023-02-06T09:35:49.753Z,6.90
2023-02-06T09:38:17.264Z,6.13
2023-02-06T09:40:43.891Z,6.07
2023-02-06T09:43:12.754Z,6.70
2023-02-06T09:45:45.145Z,5.68
2023-02-06T09:48:20.307Z,6.55
2023-02-06T09:51:10.046Z,6.35
2023-02-06T09:53:49.688Z,6.22
2023-02-06T09:56:27.590Z,6.90
2023-02-06T09:59:10.304Z,6.15
2023-02-06T10:01:49.494Z,6.45
2023-02-06T10:04:49.693Z,7.47
2023-02-06T10:07:44.381Z,5.03
2023-02-06T10:10:19.244Z,5.97
2023-02-06T10:13:01.860Z,9.18
2023-02-06T10:15:34.524Z,5.68
2023-02-06T10:18:17.754Z,5.10
2023-02-06T10:20:55.130Z,5.07
2023-02-06T10:23:43.091Z,5.20
2023-02-06T10:26:16.995Z,4.28
2023-02-06T10:29:04.717Z,4.25
2023-02-06T10:31:45.014Z,4.53
2023-02-06T10:34:29.516Z,3.30
2023-02-06T10:37:15.248Z,3.72
2023-02-06T10:39:49.348Z,3.03
2023-02-06T10:42:45.537Z,3.80
2023-02-06T10:45:35.265Z,3.08
2023-02-06T10:48:24.663Z,2.92
2023-02-06T10:50:58.121Z,2.85
2023-02-06T10:53:36.641Z,3.03
2023-02-06T10:56:16.947Z,2.83
2023-02-06T10:59:10.135Z,2.97
2023-02-06T11:01:39.763Z,2.90
2023-02-06T11:04:15.923Z,2.80
2023-02-06T11:06:42.990Z,2.85
2023-02-06T11:09:10.346Z,3.25
2023-02-06T11:11:51.278Z,2.85
2023-02-06T11:14:24.959Z,2.47
2023-02-06T11:16:51.802Z,2.80
2023-02-06T11:19:25.727Z,3.17
2023-02-06T11:22:12.480Z,3.08
2023-02-06T11:24:57.457Z,3.83
2023-02-06T11:27:24.500Z,3.38
2023-02-06T11:29:52.302Z,3.25
2023-02-06T11:32:40.662Z,3.95
2023-02-06T11:35:31.257Z,3.00
2023-02-06T11:38:11.654Z,3.60
2023-02-06T11:40:38.465Z,3.05
2023-02-06T11:43:18.840Z,2.90
2023-02-06T11:45:47.492Z,3.15
2023-02-06T11:48:36.835Z,4.15
2023-02-06T11:51:04.726Z,3.75
2023-02-06T11:53:31.692Z,4.25
2023-02-06T11:56:05.661Z,3.35
2023-02-06T11:58:32.791Z,3.70
2023-02-06T12:01:05.875Z,3.25
2023-02-06T12:03:32.377Z,3.97
2023-02-06T12:06:31.164Z,3.22
2023-02-06T12:09:03.663Z,2.90
2023-02-06T12:12:00.315Z,3.55
2023-02-06T12:14:47.766Z,3.20
2023-02-06T12:17:25.494Z,3.00
2023-02-06T12:20:05.130Z,3.13
2023-02-06T12:22:39.172Z,3.53
2023-02-06T12:25:18.827Z,3.67
2023-02-06T12:27:45.860Z,3.70
2023-02-06T12:30:27.967Z,3.10
2023-02-06T12:33:07.091Z,2.90
2023-02-06T12:35:44.855Z,3.63
2023-02-06T12:38:21.662Z,3.05
2023-02-06T12:41:25.360Z,3.05
2023-02-06T12:44:02.080Z,2.70
2023-02-06T12:46:30.813Z,3.22
2023-02-06T12:49:05.609Z,3.25
2023-02-06T12:51:37.901Z,3.58
2023-02-06T12:54:16.533Z,2.83
2023-02-06T12:56:50.956Z,3.28
2023-02-06T12:59:26.517Z,3.58
2023-02-06T13:02:05.200Z,3.60
2023-02-06T13:04:36.553Z,4.22
2023-02-06T13:07:13.002Z,7.28
2023-02-06T13:09:55.682Z,3.90
2023-02-06T13:12:25.221Z,3.90
2023-02-06T13:14:51.629Z,3.17
2023-02-06T13:17:22.212Z,3.70
2023-02-06T13:19:48.735Z,3.60
2023-02-06T13:22:34.051Z,3.80
2023-02-06T13:25:01.893Z,3.35
2023-02-06T13:27:39.905Z,3.67
2023-02-06T13:30:46.368Z,3.25
2023-02-06T13:33:27.180Z,3.13
2023-02-06T13:35:58.672Z,3.00
2023-02-06T13:38:33.207Z,3.80
2023-02-06T13:41:15.153Z,4.78
2023-02-06T13:44:26.303Z,4.15
2023-02-06T13:47:46.119Z,3.65
2023-02-06T13:50:47.642Z,4.22
2023-02-06T13:53:13.945Z,4.88
2023-02-06T13:55:47.972Z,3.80
2023-02-06T13:58:44.037Z,4.03
2023-02-06T14:01:15.443Z,3.58
2023-02-06T14:03:51.183Z,4.32
2023-02-06T14:06:46.204Z,3.78
2023-02-06T14:09:51.732Z,4.60
2023-02-06T14:12:39.257Z,4.68
2023-02-06T14:15:28.400Z,4.57
2023-02-06T14:18:22.200Z,4.50
2023-02-06T14:20:56.563Z,4.85
2023-02-06T14:23:45.484Z,4.43
2023-02-06T14:26:36.941Z,5.30
2023-02-06T14:29:30.033Z,6.30
2023-02-06T14:32:25.912Z,4.93
2023-02-06T14:34:57.341Z,4.38
2023-02-06T14:39:52.599Z,5.28
2023-02-06T14:42:40.752Z,5.85
2023-02-06T14:45:25.754Z,5.00
2023-02-06T14:47:53.219Z,5.47
2023-02-06T14:50:26.553Z,4.45
2023-02-06T14:52:58.201Z,4.43
2023-02-06T14:55:38.320Z,4.40
2023-02-06T14:58:18.726Z,4.20
2023-02-06T15:00:45.744Z,4.25
2023-02-06T15:03:18.973Z,4.07
2023-02-06T15:05:45.750Z,6.10
2023-02-06T15:08:17.896Z,5.20
2023-02-06T15:10:46.360Z,5.18
2023-02-06T15:13:34.706Z,4.70
2023-02-06T15:16:07.103Z,4.68
2023-02-06T15:18:35.119Z,5.00
2023-02-06T15:21:07.471Z,4.57
2023-02-06T15:24:08.269Z,4.88
2023-02-06T15:26:53.240Z,5.25
2023-02-06T15:29:23.589Z,4.38
2023-02-06T15:31:53.074Z,6.18
2023-02-06T15:34:22.687Z,5.25
2023-02-06T15:36:50.204Z,5.70
2023-02-06T15:39:17.799Z,4.90
2023-02-06T15:41:50.971Z,4.40
2023-02-06T15:44:43.700Z,9.40
2023-02-06T15:47:14.585Z,9.15
2023-02-06T15:49:48.721Z,8.13
2023-02-06T15:52:32.680Z,7.50
2023-02-06T15:55:00.293Z,5.43
2023-02-06T15:57:34.696Z,6.32
2023-02-06T16:00:08.822Z,5.63
2023-02-06T16:02:38.179Z,5.80
2023-02-06T16:05:06.013Z,5.85
2023-02-06T16:07:35.840Z,6.85
2023-02-06T16:10:08.236Z,7.35
2023-02-06T16:12:37.108Z,6.75
2023-02-06T16:15:24.155Z,7.35
2023-02-06T16:17:51.145Z,7.20
2023-02-06T16:20:39.397Z,7.05
2023-02-06T16:23:23.771Z,9.10
2023-02-06T16:26:01.932Z,6.75
2023-02-06T16:28:28.966Z,7.45
2023-02-06T16:30:59.139Z,8.25
2023-02-06T16:33:31.833Z,6.43
2023-02-06T16:35:58.774Z,8.20
2023-02-06T16:38:25.292Z,8.95
2023-02-06T16:40:52.314Z,9.40
2023-02-06T16:43:20.091Z,8.18
2023-02-06T16:45:47.884Z,6.72
2023-02-06T16:48:19.114Z,9.57
2023-02-06T16:50:48.201Z,7.13
2023-02-06T16:53:24.396Z,6.82
2023-02-06T16:55:52.067Z,7.18
2023-02-06T16:58:22.142Z,7.22
2023-02-06T17:00:51.707Z,4.97
2023-02-06T17:03:21.633Z,5.57
2023-02-06T17:05:50.838Z,4.82
2023-02-06T17:08:22.583Z,4.53
2023-02-06T17:10:49.542Z,5.03
2023-02-06T17:13:17.890Z,5.03
2023-02-06T17:15:47.037Z,5.47
2023-02-06T17:18:16.292Z,5.82
2023-02-06T17:20:45.569Z,4.70
2023-02-06T17:23:12.441Z,5.07
2023-02-06T17:25:39.420Z,5.85
2023-02-06T17:28:07.512Z,5.50
2023-02-06T17:30:36.257Z,5.82
2023-02-06T17:33:03.967Z,6.13
2023-02-06T17:35:31.169Z,6.10
2023-02-06T17:37:58.191Z,6.40
2023-02-06T17:40:28.316Z,5.35
2023-02-06T17:42:55.900Z,6.57
2023-02-06T17:45:22.433Z,5.95
2023-02-06T17:47:49.367Z,6.47
2023-02-06T17:50:19.170Z,6.25
2023-02-06T17:52:45.867Z,6.43
2023-02-06T17:55:12.831Z,6.95
2023-02-06T17:57:39.900Z,6.80
2023-02-06T18:00:11.886Z,6.13
2023-02-06T18:02:38.404Z,6.10
2023-02-06T18:05:05.934Z,6.95
2023-02-06T18:07:32.305Z,7.20
2023-02-06T18:09:58.902Z,6.75
2023-02-06T18:12:25.501Z,6.00
2023-02-06T18:14:52.023Z,7.72
2023-02-06T18:17:18.950Z,8.13
2023-02-06T18:19:48.091Z,6.60
2023-02-06T18:22:17.441Z,6.07
2023-02-06T18:24:46.370Z,6.93
2023-02-06T18:27:14.067Z,7.10
2023-02-06T18:29:49.885Z,7.82
2023-02-06T18:32:18.184Z,7.32
2023-02-06T18:34:45.520Z,7.72
2023-02-06T18:37:12.232Z,6.75
2023-02-06T18:39:39.430Z,9.57
2023-02-06T18:42:24.462Z,9.23
2023-02-06T18:44:50.939Z,9.13
2023-02-06T18:47:18.832Z,9.43
2023-02-06T18:49:45.536Z,10.60
2023-02-06T18:52:12.375Z,8.75
2023-02-06T18:54:39.457Z,10.00
2023-02-06T18:57:07.083Z,9.65
2023-02-06T18:59:34.354Z,11.35
2023-02-06T19:02:00.927Z,8.85
2023-02-06T19:04:27.672Z,8.43
2023-02-06T19:06:57.151Z,8.80
2023-02-06T19:09:23.914Z,8.02
2023-02-06T19:11:50.432Z,8.63
2023-02-06T19:14:22.410Z,7.43
2023-02-06T19:16:50.169Z,7.38
2023-02-06T19:19:16.956Z,6.90
2023-02-06T19:21:44.161Z,7.75
2023-02-06T19:24:12.888Z,7.55
2023-02-06T19:26:39.642Z,7.38
2023-02-06T19:29:08.702Z,7.70
2023-02-06T19:31:38.866Z,7.07
2023-02-06T19:34:07.348Z,7.00
2023-02-06T19:36:34.256Z,7.60
2023-02-06T19:39:05.409Z,7.55
2023-02-06T19:41:34.199Z,6.35
2023-02-06T19:44:07.195Z,7.25
2023-02-06T19:46:34.454Z,6.50
2023-02-06T19:49:01.427Z,6.55
2023-02-06T19:51:30.718Z,6.93
2023-02-06T19:53:59.301Z,6.38
2023-02-06T19:56:34.598Z,6.00
2023-02-06T19:59:03.676Z,6.63
2023-02-06T20:01:31.202Z,6.97
2023-02-06T20:04:02.752Z,6.75
2023-02-06T20:08:57.270Z,6.15
2023-02-06T20:11:23.895Z,7.32
2023-02-06T20:13:55.474Z,6.32
2023-02-06T20:18:50.349Z,6.40
2023-02-06T20:21:21.242Z,6.88
2023-02-06T20:23:49.651Z,6.60
2023-02-06T20:26:18.360Z,6.85
2023-02-06T20:28:45.998Z,19.08
2023-02-06T20:31:13.149Z,12.85
2023-02-06T20:33:39.708Z,10.20
2023-02-06T20:36:13.101Z,8.70
2023-02-06T20:38:39.886Z,7.75
2023-02-06T20:41:07.286Z,9.15
2023-02-06T20:43:35.155Z,10.65
2023-02-06T20:46:05.511Z,9.93
2023-02-06T20:48:32.378Z,8.63
2023-02-06T20:51:00.818Z,7.72
2023-02-06T20:53:27.334Z,7.05
2023-02-06T20:55:53.821Z,7.90
2023-02-06T20:58:20.622Z,7.53
2023-02-06T21:00:47.781Z,6.93
2023-02-06T21:03:14.286Z,8.10
2023-02-06T21:05:40.852Z,7.35
2023-02-06T21:08:08.111Z,7.72
2023-02-06T21:10:35.421Z,6.82
2023-02-06T21:13:03.242Z,8.55
2023-02-06T21:15:29.781Z,10.15
2023-02-06T21:17:56.259Z,11.43
2023-02-06T21:20:22.723Z,10.00
2023-02-06T21:22:52.697Z,8.93
2023-02-06T21:25:19.381Z,8.65
2023-02-06T21:27:46.049Z,8.88
2023-02-06T21:30:12.992Z,8.20
2023-02-06T21:32:39.477Z,7.93
2023-02-06T21:35:08.520Z,7.85
2023-02-06T21:37:34.991Z,8.52
2023-02-06T21:40:01.645Z,7.47
2023-02-06T21:42:28.081Z,7.53
2023-02-06T21:44:54.463Z,8.70
2023-02-06T21:47:20.929Z,8.60
2023-02-06T21:49:47.364Z,8.10
2023-02-06T21:52:13.835Z,7.22
2023-02-06T21:54:40.279Z,8.50
2023-02-06T21:57:06.816Z,7.80
2023-02-06T21:59:34.248Z,6.63
2023-02-06T22:02:00.745Z,6.82
2023-02-06T22:04:27.291Z,7.47
2023-02-06T22:06:53.726Z,7.63
2023-02-06T22:09:20.879Z,8.20
2023-02-06T22:11:47.322Z,9.20
2023-02-06T22:14:16.041Z,9.00
2023-02-06T22:16:42.837Z,8.20
2023-02-06T22:19:10.375Z,9.10
2023-02-06T22:21:36.961Z,8.43
2023-02-06T22:24:06.345Z,8.10
2023-02-06T22:26:36.702Z,7.75
2023-02-06T22:29:03.397Z,7.90
2023-02-06T22:31:32.627Z,7.20
2023-02-06T22:34:00.846Z,7.63
2023-02-06T22:36:30.008Z,7.43
2023-02-06T22:39:03.082Z,6.93
2023-02-06T22:41:29.907Z,6.10
2023-02-06T22:43:56.952Z,7.68
2023-02-06T22:46:26.867Z,7.43
2023-02-06T22:48:53.512Z,7.20
2023-02-06T22:51:21.110Z,5.10
2023-02-06T22:53:48.207Z,6.15
2023-02-06T22:56:31.276Z,5.75
2023-02-06T22:59:12.295Z,6.05
2023-02-06T23:01:45.090Z,6.82
2023-02-06T23:04:34.642Z,7.05
2023-02-06T23:07:01.276Z,5.88
2023-02-06T23:09:31.690Z,6.90
2023-02-06T23:11:59.576Z,6.60
2023-02-06T23:14:27.228Z,6.40
2023-02-06T23:16:54.761Z,7.40
2023-02-06T23:19:21.631Z,6.03
2023-02-06T23:21:49.708Z,7.13
2023-02-06T23:24:16.237Z,7.22
2023-02-06T23:26:44.328Z,6.65
2023-02-06T23:29:15.730Z,6.53
2023-02-06T23:31:42.622Z,7.68
2023-02-06T23:34:09.131Z,7.07
2023-02-06T23:36:37.753Z,7.38
2023-02-06T23:39:04.920Z,6.65
2023-02-06T23:41:32.523Z,6.18
2023-02-06T23:44:05.180Z,6.60
2023-02-06T23:46:34.566Z,5.97
2023-02-06T23:49:02.333Z,6.22
2023-02-06T23:51:29.002Z,6.78
2023-02-06T23:53:55.470Z,6.22
2023-02-06T23:56:27.895Z,6.97
2023-02-06T23:58:55.957Z,7.25
